Terminal Aerodrome Forecast
Issued by NWS

Home | Current Version | Previous Version | Text Only | Print | Product List | Glossary On
Versions: 1 2 3 4 5 6 7 8 9 10 11 12
645
FTUS46 KPDT 290520
TAFYKM
TAF
KYKM 290520Z 2906/3006 29007KT P6SM BKN250
     FM291500 VRB06KT P6SM BKN150
     FM292100 23007KT P6SM BKN080
     FM300200 24008KT P6SM -SHRA OVC050=

USA.gov is the U.S. government's official web portal to all federal, state and local government web resources and services.